AZU4036 SBFZ-SBRF
Flight info
| Callsign | AZU4036 |
|---|---|
| Flight time | 1h 0m |
| Altitude | 39000 |
| Route | UTMAR UZ70 UGTUN |
| Aircraft | A20N/M-SDE2E3FGHIRWXY/LB1 |
Departure
| Time | 2026-05-01 12:28 |
|---|---|
| Airport | Pinto Martins International Airport (SBFZ) |
Arrival
| Time | 2026-05-01 13:29 |
|---|---|
| Airport | Recife/Guararapes - Gilberto Freyre International Airport (SBRF) |
| Time | Latitude | Longitude | Altitude | Speed | Heading |
|---|---|---|---|---|---|
| 2026-05-01 12:13 | -3.77873 | -38.53839 | 90 ft | 0 kts | 218° |
| 2026-05-01 12:16 | -3.77871 | -38.53838 | 90 ft | 2 kts | 218° |
| 2026-05-01 12:16 | -3.77861 | -38.53827 | 90 ft | 2 kts | 244° |
| 2026-05-01 12:16 | -3.77856 | -38.53813 | 90 ft | 2 kts | 263° |
| 2026-05-01 12:16 | -3.77857 | -38.53798 | 90 ft | 2 kts | 283° |
| 2026-05-01 12:17 | -3.77862 | -38.53784 | 90 ft | 2 kts | 295° |
| 2026-05-01 12:17 | -3.77867 | -38.53770 | 90 ft | 2 kts | 291° |
| 2026-05-01 12:17 | -3.77870 | -38.53763 | 90 ft | 0 kts | 292° |
| 2026-05-01 12:17 | -3.77870 | -38.53764 | 90 ft | 0 kts | 292° |
| 2026-05-01 12:20 | -3.77867 | -38.53770 | 90 ft | 2 kts | 294° |
| 2026-05-01 12:20 | -3.77857 | -38.53785 | 90 ft | 1 kts | 308° |
| 2026-05-01 12:21 | -3.77845 | -38.53800 | 90 ft | 4 kts | 308° |
| 2026-05-01 12:21 | -3.77823 | -38.53828 | 90 ft | 6 kts | 311° |
| 2026-05-01 12:21 | -3.77787 | -38.53867 | 90 ft | 8 kts | 311° |
| 2026-05-01 12:21 | -3.77745 | -38.53914 | 90 ft | 9 kts | 311° |
| 2026-05-01 12:22 | -3.77711 | -38.53960 | 90 ft | 8 kts | 288° |
| 2026-05-01 12:22 | -3.77696 | -38.54021 | 90 ft | 9 kts | 283° |
| 2026-05-01 12:22 | -3.77680 | -38.54081 | 90 ft | 6 kts | 286° |
| 2026-05-01 12:22 | -3.77666 | -38.54129 | 90 ft | 7 kts | 286° |
| 2026-05-01 12:23 | -3.77653 | -38.54178 | 90 ft | 6 kts | 283° |
| 2026-05-01 12:23 | -3.77642 | -38.54224 | 90 ft | 7 kts | 283° |
| 2026-05-01 12:23 | -3.77627 | -38.54282 | 90 ft | 9 kts | 287° |
| 2026-05-01 12:23 | -3.77608 | -38.54344 | 90 ft | 6 kts | 286° |
| 2026-05-01 12:24 | -3.77576 | -38.54371 | 90 ft | 7 kts | 347° |
| 2026-05-01 12:24 | -3.77532 | -38.54380 | 89 ft | 4 kts | 348° |
| 2026-05-01 12:24 | -3.77522 | -38.54383 | 89 ft | 3 kts | 348° |
| 2026-05-01 12:24 | -3.77486 | -38.54410 | 88 ft | 9 kts | 284° |
| 2026-05-01 12:25 | -3.77461 | -38.54490 | 82 ft | 15 kts | 308° |
| 2026-05-01 12:25 | -3.77408 | -38.54507 | 81 ft | 0 kts | 9° |
| 2026-05-01 12:26 | -3.77381 | -38.54503 | 82 ft | 8 kts | 9° |
| 2026-05-01 12:26 | -3.77334 | -38.54484 | 87 ft | 7 kts | 36° |
| 2026-05-01 12:27 | -3.77312 | -38.54438 | 87 ft | 5 kts | 103° |
| 2026-05-01 12:27 | -3.77317 | -38.54424 | 87 ft | 0 kts | 108° |
| 2026-05-01 12:28 | -3.77488 | -38.53793 | 88 ft | 112 kts | 105° |
| 2026-05-01 12:28 | -3.77735 | -38.52855 | 124 ft | 159 kts | 107° |
| 2026-05-01 12:28 | -3.78335 | -38.50659 | 1096 ft | 171 kts | 105° |
| 2026-05-01 12:29 | -3.78640 | -38.49447 | 1442 ft | 188 kts | 104° |
| 2026-05-01 12:29 | -3.78995 | -38.48104 | 1737 ft | 212 kts | 105° |
| 2026-05-01 12:29 | -3.81033 | -38.45795 | 2621 ft | 256 kts | 160° |
| 2026-05-01 12:30 | -3.84604 | -38.44846 | 4023 ft | 272 kts | 160° |
| 2026-05-01 12:30 | -3.86427 | -38.44313 | 4791 ft | 276 kts | 160° |
| 2026-05-01 12:30 | -3.88278 | -38.43735 | 5542 ft | 281 kts | 158° |
| 2026-05-01 12:31 | -3.90137 | -38.43135 | 6317 ft | 285 kts | 158° |
| 2026-05-01 12:31 | -3.92024 | -38.42515 | 7092 ft | 288 kts | 158° |
| 2026-05-01 12:31 | -3.93944 | -38.41884 | 7860 ft | 292 kts | 159° |
| 2026-05-01 12:31 | -3.95919 | -38.41348 | 8617 ft | 297 kts | 163° |
| 2026-05-01 12:32 | -3.97938 | -38.40940 | 9327 ft | 301 kts | 165° |
| 2026-05-01 12:32 | -4.02115 | -38.40142 | 10570 ft | 314 kts | 165° |
| 2026-05-01 12:32 | -4.04326 | -38.39713 | 10887 ft | 332 kts | 165° |
| 2026-05-01 12:33 | -4.06649 | -38.39263 | 11308 ft | 344 kts | 165° |
| 2026-05-01 12:33 | -4.09038 | -38.38805 | 11948 ft | 348 kts | 165° |
| 2026-05-01 12:33 | -4.11411 | -38.38350 | 12615 ft | 350 kts | 165° |
| 2026-05-01 12:33 | -4.13822 | -38.37888 | 13256 ft | 352 kts | 165° |
| 2026-05-01 12:34 | -4.16221 | -38.37427 | 13856 ft | 355 kts | 165° |
| 2026-05-01 12:34 | -4.18670 | -38.36954 | 14478 ft | 357 kts | 165° |
| 2026-05-01 12:34 | -4.21133 | -38.36478 | 15089 ft | 359 kts | 165° |
| 2026-05-01 12:34 | -4.23602 | -38.36000 | 15678 ft | 361 kts | 165° |
| 2026-05-01 12:35 | -4.26078 | -38.35519 | 16240 ft | 363 kts | 165° |
| 2026-05-01 12:35 | -4.28575 | -38.35035 | 16756 ft | 366 kts | 164° |
| 2026-05-01 12:35 | -4.31086 | -38.34539 | 17308 ft | 368 kts | 165° |
| 2026-05-01 12:35 | -4.33607 | -38.34034 | 17854 ft | 370 kts | 165° |
| 2026-05-01 12:36 | -4.36144 | -38.33529 | 18348 ft | 373 kts | 165° |
| 2026-05-01 12:36 | -4.38706 | -38.33025 | 18830 ft | 376 kts | 165° |
| 2026-05-01 12:36 | -4.41288 | -38.32521 | 19319 ft | 379 kts | 165° |
| 2026-05-01 12:36 | -4.43891 | -38.32013 | 19769 ft | 382 kts | 165° |
| 2026-05-01 12:37 | -4.46516 | -38.31504 | 20233 ft | 385 kts | 166° |
| 2026-05-01 12:37 | -4.49155 | -38.30991 | 20695 ft | 387 kts | 166° |
| 2026-05-01 12:37 | -4.51766 | -38.30312 | 21103 ft | 387 kts | 156° |
| 2026-05-01 12:37 | -4.54194 | -38.29165 | 21542 ft | 385 kts | 146° |
| 2026-05-01 12:38 | -4.56372 | -38.27612 | 21980 ft | 384 kts | 138° |
| 2026-05-01 12:38 | -4.58449 | -38.25911 | 22385 ft | 387 kts | 137° |
| 2026-05-01 12:38 | -4.60527 | -38.24178 | 22785 ft | 390 kts | 137° |
| 2026-05-01 12:38 | -4.62622 | -38.22435 | 23199 ft | 393 kts | 137° |
| 2026-05-01 12:39 | -4.64731 | -38.20687 | 23631 ft | 394 kts | 138° |
| 2026-05-01 12:39 | -4.66850 | -38.18937 | 24081 ft | 396 kts | 137° |
| 2026-05-01 12:39 | -4.68980 | -38.17181 | 24493 ft | 398 kts | 138° |
| 2026-05-01 12:39 | -4.71123 | -38.15416 | 24880 ft | 400 kts | 138° |
| 2026-05-01 12:40 | -4.73281 | -38.13641 | 25246 ft | 403 kts | 137° |
| 2026-05-01 12:40 | -4.75452 | -38.11853 | 25608 ft | 405 kts | 138° |
| 2026-05-01 12:40 | -4.77638 | -38.10055 | 25964 ft | 408 kts | 137° |
| 2026-05-01 12:40 | -4.79838 | -38.08247 | 26320 ft | 410 kts | 137° |
| 2026-05-01 12:41 | -4.81310 | -38.07035 | 26547 ft | 412 kts | 137° |
| 2026-05-01 12:41 | -4.84276 | -38.04597 | 26997 ft | 415 kts | 137° |
| 2026-05-01 12:41 | -4.86515 | -38.02754 | 27323 ft | 418 kts | 137° |
| 2026-05-01 12:41 | -4.88768 | -38.00900 | 27636 ft | 420 kts | 137° |
| 2026-05-01 12:42 | -4.91034 | -37.99035 | 27961 ft | 422 kts | 137° |
| 2026-05-01 12:42 | -4.93311 | -37.97161 | 28267 ft | 425 kts | 137° |
| 2026-05-01 12:42 | -4.95602 | -37.95274 | 28574 ft | 427 kts | 137° |
| 2026-05-01 12:42 | -4.97906 | -37.93378 | 28883 ft | 430 kts | 137° |
| 2026-05-01 12:43 | -5.00224 | -37.91472 | 29177 ft | 432 kts | 138° |
| 2026-05-01 12:43 | -5.02553 | -37.89553 | 29466 ft | 435 kts | 138° |
| 2026-05-01 12:43 | -5.04897 | -37.87621 | 29739 ft | 437 kts | 138° |
| 2026-05-01 12:43 | -5.07255 | -37.85680 | 30030 ft | 440 kts | 138° |
| 2026-05-01 12:44 | -5.09626 | -37.83729 | 30308 ft | 442 kts | 138° |
| 2026-05-01 12:44 | -5.12010 | -37.81770 | 30585 ft | 444 kts | 139° |
| 2026-05-01 12:44 | -5.16821 | -37.77832 | 31118 ft | 448 kts | 139° |
| 2026-05-01 12:45 | -5.21671 | -37.73850 | 31624 ft | 452 kts | 139° |
| 2026-05-01 12:45 | -5.24110 | -37.71843 | 31861 ft | 454 kts | 139° |
| 2026-05-01 12:45 | -5.26559 | -37.69826 | 32096 ft | 456 kts | 139° |
| 2026-05-01 12:46 | -5.29014 | -37.67804 | 32377 ft | 457 kts | 139° |
| 2026-05-01 12:46 | -5.31468 | -37.65784 | 32703 ft | 456 kts | 139° |
| 2026-05-01 12:46 | -5.33917 | -37.63765 | 33060 ft | 455 kts | 139° |
| 2026-05-01 12:46 | -5.36363 | -37.61748 | 33397 ft | 455 kts | 140° |
| 2026-05-01 12:47 | -5.38806 | -37.59732 | 33737 ft | 454 kts | 140° |
| 2026-05-01 12:47 | -5.41246 | -37.57719 | 34082 ft | 453 kts | 140° |
| 2026-05-01 12:47 | -5.43680 | -37.55712 | 34423 ft | 452 kts | 140° |
| 2026-05-01 12:47 | -5.46107 | -37.53708 | 34754 ft | 451 kts | 140° |
| 2026-05-01 12:48 | -5.48529 | -37.51709 | 35072 ft | 450 kts | 140° |
| 2026-05-01 12:48 | -5.50945 | -37.49714 | 35365 ft | 449 kts | 140° |
| 2026-05-01 12:48 | -5.53357 | -37.47723 | 35657 ft | 448 kts | 141° |
| 2026-05-01 12:48 | -5.55763 | -37.45737 | 35923 ft | 448 kts | 141° |
| 2026-05-01 12:49 | -5.58169 | -37.43751 | 36161 ft | 447 kts | 141° |
| 2026-05-01 12:49 | -5.60571 | -37.41767 | 36396 ft | 447 kts | 141° |
| 2026-05-01 12:49 | -5.62972 | -37.39785 | 36619 ft | 447 kts | 141° |
| 2026-05-01 12:49 | -5.65369 | -37.37803 | 36827 ft | 446 kts | 141° |
| 2026-05-01 12:50 | -5.67766 | -37.35821 | 37023 ft | 446 kts | 141° |
| 2026-05-01 12:50 | -5.70159 | -37.33834 | 37204 ft | 446 kts | 141° |
| 2026-05-01 12:50 | -5.72548 | -37.31844 | 37379 ft | 446 kts | 141° |
| 2026-05-01 12:50 | -5.74939 | -37.29857 | 37550 ft | 446 kts | 141° |
| 2026-05-01 12:51 | -5.77334 | -37.27875 | 37719 ft | 446 kts | 141° |
| 2026-05-01 12:51 | -5.79730 | -37.25899 | 37890 ft | 446 kts | 142° |
| 2026-05-01 12:51 | -5.84519 | -37.21949 | 38200 ft | 445 kts | 142° |
| 2026-05-01 12:52 | -5.86910 | -37.19975 | 38353 ft | 445 kts | 142° |
| 2026-05-01 12:52 | -5.91688 | -37.16027 | 38619 ft | 445 kts | 142° |
| 2026-05-01 12:52 | -5.94077 | -37.14055 | 38759 ft | 445 kts | 142° |
| 2026-05-01 12:53 | -5.98850 | -37.10107 | 38946 ft | 445 kts | 142° |
| 2026-05-01 12:53 | -6.01238 | -37.08135 | 38956 ft | 444 kts | 142° |
| 2026-05-01 12:54 | -6.06006 | -37.04192 | 38960 ft | 444 kts | 142° |
| 2026-05-01 12:54 | -6.13164 | -36.98282 | 38968 ft | 444 kts | 142° |
| 2026-05-01 12:55 | -6.20333 | -36.92370 | 38985 ft | 445 kts | 142° |
| 2026-05-01 12:56 | -6.25104 | -36.88421 | 38996 ft | 444 kts | 142° |
| 2026-05-01 12:56 | -6.29873 | -36.84470 | 38995 ft | 444 kts | 142° |
| 2026-05-01 12:57 | -6.34643 | -36.80518 | 38994 ft | 445 kts | 142° |
| 2026-05-01 12:57 | -6.41797 | -36.74585 | 38995 ft | 444 kts | 142° |
| 2026-05-01 12:58 | -6.46552 | -36.70637 | 39004 ft | 443 kts | 142° |
| 2026-05-01 12:59 | -6.53693 | -36.64726 | 39005 ft | 444 kts | 142° |
| 2026-05-01 12:59 | -6.60845 | -36.58799 | 39027 ft | 444 kts | 143° |
| 2026-05-01 13:00 | -6.67996 | -36.52882 | 39029 ft | 443 kts | 143° |
| 2026-05-01 13:01 | -6.72775 | -36.48920 | 37684 ft | 452 kts | 142° |
| 2026-05-01 13:01 | -6.75213 | -36.46903 | 36635 ft | 457 kts | 142° |
| 2026-05-01 13:01 | -6.79275 | -36.43530 | 35507 ft | 453 kts | 141° |
| 2026-05-01 13:02 | -6.82501 | -36.40841 | 34656 ft | 450 kts | 140° |
| 2026-05-01 13:07 | -7.30426 | -36.00438 | 24945 ft | 395 kts | 137° |
| 2026-05-01 13:07 | -7.32532 | -35.98658 | 24539 ft | 391 kts | 137° |
| 2026-05-01 13:07 | -7.34580 | -35.96924 | 24115 ft | 388 kts | 137° |
| 2026-05-01 13:08 | -7.36638 | -35.95181 | 23700 ft | 385 kts | 137° |
| 2026-05-01 13:08 | -7.38286 | -35.93784 | 23371 ft | 382 kts | 137° |
| 2026-05-01 13:08 | -7.40301 | -35.92077 | 22952 ft | 380 kts | 137° |
| 2026-05-01 13:08 | -7.42325 | -35.90361 | 22526 ft | 377 kts | 137° |
| 2026-05-01 13:09 | -7.44311 | -35.88679 | 22117 ft | 374 kts | 137° |
| 2026-05-01 13:09 | -7.45638 | -35.87554 | 21830 ft | 372 kts | 137° |
| 2026-05-01 13:09 | -7.48276 | -35.85319 | 21249 ft | 369 kts | 137° |
| 2026-05-01 13:09 | -7.50215 | -35.83676 | 20833 ft | 366 kts | 137° |
| 2026-05-01 13:10 | -7.52163 | -35.82027 | 20416 ft | 364 kts | 137° |
| 2026-05-01 13:10 | -7.54108 | -35.80378 | 19999 ft | 361 kts | 136° |
| 2026-05-01 13:10 | -7.56007 | -35.78768 | 19602 ft | 358 kts | 136° |
| 2026-05-01 13:10 | -7.57921 | -35.77143 | 19198 ft | 355 kts | 136° |
| 2026-05-01 13:11 | -7.59799 | -35.75547 | 18770 ft | 353 kts | 136° |
| 2026-05-01 13:11 | -7.61670 | -35.73959 | 18346 ft | 351 kts | 136° |
| 2026-05-01 13:11 | -7.63511 | -35.72396 | 17951 ft | 348 kts | 136° |
| 2026-05-01 13:11 | -7.65361 | -35.70824 | 17545 ft | 345 kts | 136° |
| 2026-05-01 13:12 | -7.67192 | -35.69268 | 17149 ft | 342 kts | 136° |
| 2026-05-01 13:12 | -7.69001 | -35.67731 | 16736 ft | 340 kts | 136° |
| 2026-05-01 13:12 | -7.70780 | -35.66183 | 16307 ft | 338 kts | 131° |
| 2026-05-01 13:12 | -7.72082 | -35.64242 | 15842 ft | 331 kts | 110° |
| 2026-05-01 13:13 | -7.72555 | -35.62016 | 15398 ft | 327 kts | 90° |
| 2026-05-01 13:13 | -7.72401 | -35.59743 | 14996 ft | 325 kts | 84° |
| 2026-05-01 13:13 | -7.72261 | -35.58241 | 14722 ft | 324 kts | 84° |
| 2026-05-01 13:13 | -7.71989 | -35.55243 | 14165 ft | 322 kts | 84° |
| 2026-05-01 13:14 | -7.71791 | -35.52992 | 13761 ft | 321 kts | 84° |
| 2026-05-01 13:14 | -7.71596 | -35.50764 | 13350 ft | 319 kts | 84° |
| 2026-05-01 13:14 | -7.71405 | -35.48570 | 12964 ft | 318 kts | 84° |
| 2026-05-01 13:14 | -7.71212 | -35.46350 | 12560 ft | 316 kts | 84° |
| 2026-05-01 13:15 | -7.71079 | -35.44821 | 12287 ft | 315 kts | 84° |
| 2026-05-01 13:15 | -7.70890 | -35.42640 | 11896 ft | 314 kts | 84° |
| 2026-05-01 13:15 | -7.70701 | -35.40442 | 11511 ft | 312 kts | 84° |
| 2026-05-01 13:15 | -7.70516 | -35.38282 | 11123 ft | 310 kts | 84° |
| 2026-05-01 13:16 | -7.70329 | -35.36137 | 10761 ft | 308 kts | 84° |
| 2026-05-01 13:16 | -7.70144 | -35.33998 | 10376 ft | 306 kts | 84° |
| 2026-05-01 13:16 | -7.69962 | -35.31884 | 10082 ft | 300 kts | 84° |
| 2026-05-01 13:17 | -7.69451 | -35.26004 | 9705 ft | 270 kts | 84° |
| 2026-05-01 13:17 | -7.69286 | -35.24118 | 9363 ft | 269 kts | 84° |
| 2026-05-01 13:18 | -7.68960 | -35.20406 | 8753 ft | 265 kts | 84° |
| 2026-05-01 13:18 | -7.68797 | -35.18547 | 8452 ft | 263 kts | 84° |
| 2026-05-01 13:18 | -7.68638 | -35.16736 | 8151 ft | 261 kts | 84° |
| 2026-05-01 13:18 | -7.68481 | -35.14932 | 7859 ft | 257 kts | 84° |
| 2026-05-01 13:19 | -7.68326 | -35.13152 | 7576 ft | 254 kts | 85° |
| 2026-05-01 13:19 | -7.68171 | -35.11379 | 7291 ft | 250 kts | 85° |
| 2026-05-01 13:19 | -7.68424 | -35.08006 | 6693 ft | 245 kts | 117° |
| 2026-05-01 13:20 | -7.69499 | -35.06691 | 6403 ft | 245 kts | 141° |
| 2026-05-01 13:20 | -7.71042 | -35.05922 | 6130 ft | 246 kts | 159° |
| 2026-05-01 13:20 | -7.72672 | -35.05403 | 5865 ft | 243 kts | 159° |
| 2026-05-01 13:21 | -7.75854 | -35.04382 | 5345 ft | 235 kts | 160° |
| 2026-05-01 13:21 | -7.77401 | -35.03886 | 5110 ft | 230 kts | 159° |
| 2026-05-01 13:21 | -7.78915 | -35.03399 | 4876 ft | 226 kts | 160° |
| 2026-05-01 13:21 | -7.80395 | -35.02922 | 4633 ft | 222 kts | 160° |
| 2026-05-01 13:22 | -7.81854 | -35.02459 | 4391 ft | 219 kts | 160° |
| 2026-05-01 13:22 | -7.83308 | -35.01995 | 4148 ft | 215 kts | 160° |
| 2026-05-01 13:22 | -7.84715 | -35.01540 | 3989 ft | 207 kts | 159° |
| 2026-05-01 13:22 | -7.86066 | -35.01099 | 3885 ft | 198 kts | 159° |
| 2026-05-01 13:23 | -7.87379 | -35.00667 | 3805 ft | 198 kts | 159° |
| 2026-05-01 13:23 | -7.88703 | -35.00229 | 3764 ft | 198 kts | 159° |
| 2026-05-01 13:23 | -7.90012 | -34.99795 | 3713 ft | 197 kts | 159° |
| 2026-05-01 13:23 | -7.91289 | -34.99372 | 3697 ft | 187 kts | 159° |
| 2026-05-01 13:24 | -7.92508 | -34.98970 | 3716 ft | 181 kts | 159° |
| 2026-05-01 13:24 | -7.93703 | -34.98573 | 3524 ft | 178 kts | 159° |
| 2026-05-01 13:24 | -7.94866 | -34.98188 | 3295 ft | 176 kts | 159° |
| 2026-05-01 13:25 | -7.97191 | -34.97418 | 2849 ft | 174 kts | 159° |
| 2026-05-01 13:25 | -7.98331 | -34.97042 | 2664 ft | 165 kts | 160° |
| 2026-05-01 13:25 | -7.99379 | -34.96697 | 2425 ft | 151 kts | 159° |
| 2026-05-01 13:25 | -8.00339 | -34.96380 | 2211 ft | 141 kts | 159° |
| 2026-05-01 13:26 | -8.01276 | -34.96069 | 2036 ft | 140 kts | 160° |
| 2026-05-01 13:26 | -8.02210 | -34.95760 | 1866 ft | 140 kts | 160° |
| 2026-05-01 13:26 | -8.03146 | -34.95451 | 1694 ft | 140 kts | 160° |
| 2026-05-01 13:26 | -8.04073 | -34.95145 | 1517 ft | 139 kts | 160° |
| 2026-05-01 13:27 | -8.04989 | -34.94843 | 1336 ft | 139 kts | 161° |
| 2026-05-01 13:27 | -8.05916 | -34.94537 | 1154 ft | 139 kts | 161° |
| 2026-05-01 13:27 | -8.07753 | -34.93929 | 786 ft | 138 kts | 161° |
| 2026-05-01 13:28 | -8.09581 | -34.93326 | 428 ft | 137 kts | 162° |
| 2026-05-01 13:28 | -8.10185 | -34.93126 | 307 ft | 136 kts | 162° |
| 2026-05-01 13:29 | -8.12223 | -34.92456 | 43 ft | 106 kts | 164° |
| 2026-05-01 13:29 | -8.13076 | -34.92175 | 42 ft | 31 kts | 162° |
| 2026-05-01 13:30 | -8.13231 | -34.91971 | 42 ft | 9 kts | 341° |
| 2026-05-01 13:31 | -8.13157 | -34.91971 | 42 ft | 4 kts | 80° |
| 2026-05-01 13:31 | -8.13139 | -34.91909 | 42 ft | 0 kts | 71° |